»·PEaware :: N458ND KBOI-KSUN

N458ND :: KBOI-KSUN

FLIGHT INFORMATION

Flight Status: Arrived
Operator: Privately registered:
United States
More flights under this callsign
Pilot: Benjamin S. (30850)
Aircraft: PIPER PA-28R-201 ARROW
(P28R)
More flights by this aircraft type
Origin: KBOI Boise Air Terminal/Gowen
United States
Destination: KSUN Friedman Meml
United States
More flights between these airports :: More routes between these airports
Route: BOISE VOR TO DERSO TO SOLDE TO HAILEY NDB (HLE) TO SUN
File this flight plan on PilotEdge
Remarks:
Altitude:
(Current/Filed)
9,500ft
Speed:
(Current/Filed)
150kts
Departed: 22-Sep-20 03:25 PM
Arrived: 22-Sep-20 04:00 PM
Distance/Time
Traveled:
84nm/0:35
Distance/Time
To Go:
Arrived

Flight Plot

Page will automatically refresh every two minutes.

Flight plan parsing failed; only flown route is shown


Map Options




Map Legend


Flown Route
Filed Route
Departure Airport
Arrival Airport
Navaid (VOR, NDB)
Fix

Horizontal Profiles

Position Reports

Time Latitude Longitude Heading Altitude Ground
Speed
22-Sep-20 15:10 43.565795 -116.243507 149 2810ft 0kts
22-Sep-20 15:11 43.565795 -116.243507 149 2810ft 0kts
22-Sep-20 15:12 43.565795 -116.243507 149 2810ft 0kts
22-Sep-20 15:13 43.565795 -116.243507 149 2810ft 0kts
22-Sep-20 15:14 43.565795 -116.243507 149 2810ft 0kts
22-Sep-20 15:15 43.565792 -116.243504 149 2810ft 1kts
22-Sep-20 15:16 43.565774 -116.242024 84 2813ft 18kts
22-Sep-20 15:18 43.565475 -116.233170 115 2830ft 32kts
22-Sep-20 15:19 43.561700 -116.222102 115 2843ft 34kts
22-Sep-20 15:20 43.558157 -116.211724 115 2853ft 23kts
22-Sep-20 15:21 43.557921 -116.210100 32 2853ft 0kts
22-Sep-20 15:22 43.557921 -116.210100 32 2853ft 0kts
22-Sep-20 15:23 43.557921 -116.210100 32 2853ft 0kts
22-Sep-20 15:24 43.557921 -116.210100 32 2853ft 0kts
22-Sep-20 15:25 43.559434 -116.211553 295 2853ft 44kts
22-Sep-20 15:26 43.567962 -116.239761 283 3485ft 87kts
22-Sep-20 15:27 43.547862 -116.243191 116 4408ft 98kts
22-Sep-20 15:28 43.536426 -116.208423 120 5217ft 101kts
22-Sep-20 15:29 43.521884 -116.174631 113 5984ft 104kts
22-Sep-20 15:30 43.515066 -116.135608 90 6735ft 105kts
22-Sep-20 15:31 43.519378 -116.096101 66 7485ft 103kts
22-Sep-20 15:32 43.526712 -116.059780 93 8226ft 98kts
22-Sep-20 15:33 43.524116 -116.024565 98 8934ft 85kts
22-Sep-20 15:33 43.523442 -115.991207 100 9148ft 120kts
22-Sep-20 15:35 43.516115 -115.935432 102 9557ft 138kts
22-Sep-20 15:36 43.507427 -115.880420 106 9540ft 151kts
22-Sep-20 15:36 43.499188 -115.833015 104 9536ft 152kts
22-Sep-20 15:37 43.489965 -115.775892 104 9532ft 152kts
22-Sep-20 15:39 43.479575 -115.709339 104 9528ft 152kts
22-Sep-20 15:39 43.472230 -115.661901 104 9526ft 152kts
22-Sep-20 15:40 43.463405 -115.604930 104 9526ft 152kts
22-Sep-20 15:41 43.436493 -115.432077 104 9529ft 151kts
22-Sep-20 15:42 43.407799 -115.251658 104 9522ft 151kts
22-Sep-20 15:43 43.371595 -115.024910 107 9636ft 149kts
22-Sep-20 15:44 43.337833 -114.814682 110 9637ft 137kts
22-Sep-20 15:45 43.327636 -114.752059 110 9641ft 136kts
22-Sep-20 15:46 43.319356 -114.701228 110 9643ft 136kts
22-Sep-20 15:47 43.311031 -114.650154 110 9643ft 137kts
22-Sep-20 15:48 43.302701 -114.599250 110 9643ft 136kts
22-Sep-20 15:49 43.294296 -114.548339 110 9643ft 136kts
22-Sep-20 15:50 43.303496 -114.494605 80 9643ft 146kts
22-Sep-20 15:51 43.315203 -114.441108 80 9643ft 146kts
22-Sep-20 15:52 43.327067 -114.386946 80 9643ft 146kts
22-Sep-20 15:53 43.338829 -114.333337 80 9643ft 146kts
22-Sep-20 15:54 43.359776 -114.284177 55 9415ft 159kts
22-Sep-20 15:55 43.398621 -114.251672 20 8860ft 167kts
22-Sep-20 15:56 43.443052 -114.240421 354 7522ft 153kts
22-Sep-20 15:57 43.476534 -114.268972 324 5979ft 129kts
22-Sep-20 15:58 43.497590 -114.289516 325 5267ft 58kts
22-Sep-20 15:59 43.503622 -114.296680 227 5285ft 0kts
22-Sep-20 16:00 43.501604 -114.294911 144 5278ft 15kts
22-Sep-20 16:01 43.498046 -114.292095 167 5269ft 14kts
22-Sep-20 16:02 43.497389 -114.291490 329 5267ft 0kts
22-Sep-20 16:03 43.497395 -114.291495 326 5267ft 0kts
22-Sep-20 16:04 43.497395 -114.291495 326 5267ft 0kts
22-Sep-20 16:05 43.497395 -114.291495 326 5267ft 0kts
22-Sep-20 16:06 43.497395 -114.291495 326 5267ft 0kts
22-Sep-20 16:07 43.497395 -114.291495 326 5267ft 0kts
22-Sep-20 16:08 43.497395 -114.291495 326 5267ft 0kts
22-Sep-20 16:09 43.497395 -114.291495 326 5267ft 0kts
22-Sep-20 16:10 43.497395 -114.291495 326 5267ft 0kts
22-Sep-20 16:11 43.497395 -114.291495 326 5267ft 0kts
22-Sep-20 16:12 43.497395 -114.291495 326 5267ft 0kts
22-Sep-20 16:13 43.497395 -114.291495 326 5267ft 0kts
22-Sep-20 16:14 43.497395 -114.291495 326 5267ft 0kts

Navigation Log

Ident Type
Flight plan parsing failed, navigation log unavailable